Time;durP1;ratioP1;P1;durP2;ratioP2;P2;SDS_P1;SDS_P2;PMS_P1;PMS_P2;Temp;Humidity;BMP_temperature;BMP_pressure;BME280_temperature;BME280_humidity;BME280_pressure;Samples;Min_cycle;Max_cycle;Signal;HPM_P1;HPM_P2
2023/09/30 00:02:15;;;;;;;18.50;4.93;;;;;;;16.53;55.22;94371.84;5105445;28;20048;-89
2023/09/30 00:04:40;;;;;;;17.77;5.13;;;;;;;16.48;55.40;94365.91;5105409;28;20091;-88
2023/09/30 00:07:06;;;;;;;8.85;4.80;;;;;;;16.46;54.94;94355.47;5105176;28;20019;-88
2023/09/30 00:10:15;;;;;;;16.98;4.70;;;;;;;16.49;54.52;94364.81;5106000;28;20019;-88
2023/09/30 00:12:41;;;;;;;13.55;4.55;;;;;;;16.53;54.48;94360.31;5145466;27;20042;-89
2023/09/30 00:15:07;;;;;;;17.70;4.75;;;;;;;16.59;55.13;94356.28;5145996;27;20092;-88
2023/09/30 00:17:32;;;;;;;10.50;5.07;;;;;;;16.54;54.64;94357.25;5145227;27;20102;-88
2023/09/30 00:19:59;;;;;;;16.80;4.45;;;;;;;16.56;54.17;94362.31;5147335;27;20030;-87
2023/09/30 00:22:24;;;;;;;15.63;5.72;;;;;;;16.65;54.01;94366.47;5147409;27;20067;-89
2023/09/30 00:24:50;;;;;;;11.02;4.47;;;;;;;16.71;54.58;94352.75;5146948;27;20023;-89
2023/09/30 00:27:16;;;;;;;13.63;4.07;;;;;;;16.72;54.63;94360.50;5146945;27;20019;-89
2023/09/30 00:29:41;;;;;;;13.25;4.22;;;;;;;16.77;55.06;94357.59;5146989;27;20072;-88
2023/09/30 00:32:07;;;;;;;13.43;4.72;;;;;;;16.78;56.11;94350.28;5146750;27;20023;-88
2023/09/30 00:34:36;;;;;;;8.52;4.18;;;;;;;16.77;53.41;94348.69;5128146;27;20023;-87
2023/09/30 00:37:02;;;;;;;16.15;4.72;;;;;;;16.78;52.39;94347.59;5128396;27;20035;-88
2023/09/30 00:39:30;;;;;;;11.23;4.50;;;;;;;16.81;53.06;94357.69;5128448;27;20027;-88
2023/09/30 00:41:58;;;;;;;7.93;4.03;;;;;;;16.88;52.59;94349.84;5146523;27;20019;-87
2023/09/30 00:44:25;;;;;;;12.00;3.97;;;;;;;16.89;53.89;94350.63;5146733;27;20083;-87
2023/09/30 00:46:50;;;;;;;19.85;4.53;;;;;;;16.89;53.26;94354.09;5146610;27;20023;-87
2023/09/30 00:49:18;;;;;;;8.55;4.50;;;;;;;16.90;53.45;94355.66;5146684;27;20044;-87
2023/09/30 00:51:45;;;;;;;12.07;4.38;;;;;;;16.95;53.23;94357.34;5128220;27;20027;-88
2023/09/30 00:54:10;;;;;;;16.10;4.70;;;;;;;17.00;51.78;94349.81;5128038;27;20090;-88
2023/09/30 00:56:42;;;;;;;21.95;4.43;;;;;;;16.99;51.30;94345.53;5146097;27;20077;-87
2023/09/30 00:59:10;;;;;;;13.63;4.68;;;;;;;16.97;51.94;94365.84;5146285;27;20090;-87
2023/09/30 01:01:36;;;;;;;22.70;4.68;;;;;;;17.05;50.58;94349.56;5127928;27;20090;-87
2023/09/30 01:04:03;;;;;;;12.07;4.32;;;;;;;17.11;51.55;94352.03;5146380;27;20056;-88
2023/09/30 01:06:28;;;;;;;15.75;4.50;;;;;;;17.07;51.67;94351.13;5127943;27;20023;-87
2023/09/30 01:08:54;;;;;;;12.73;3.65;;;;;;;17.07;52.00;94343.84;5146113;27;20030;-88
2023/09/30 01:11:21;;;;;;;15.15;4.88;;;;;;;17.09;52.68;94335.41;5145443;27;20066;-86
2023/09/30 01:13:47;;;;;;;13.18;3.97;;;;;;;17.13;52.50;94347.06;5145464;27;20026;-86
2023/09/30 01:16:13;;;;;;;9.07;4.55;;;;;;;17.14;52.20;94337.88;5127319;27;20043;-86
2023/09/30 01:18:42;;;;;;;15.15;4.53;;;;;;;17.15;52.40;94339.44;5145911;27;20026;-87
2023/09/30 01:21:09;;;;;;;13.68;3.85;;;;;;;17.14;52.72;94340.56;5145832;27;20072;-89
2023/09/30 01:23:35;;;;;;;12.75;3.95;;;;;;;17.13;52.63;94344.38;5145925;27;20021;-88
2023/09/30 01:26:03;;;;;;;18.85;3.63;;;;;;;17.17;52.14;94339.88;5145805;27;20057;-88
2023/09/30 01:28:29;;;;;;;9.45;4.85;;;;;;;17.16;52.71;94346.41;5145792;27;20251;-88
2023/09/30 01:30:54;;;;;;;15.23;4.43;;;;;;;17.16;53.63;94343.72;5127731;27;20022;-89
2023/09/30 01:33:20;;;;;;;11.05;4.30;;;;;;;17.17;53.43;94342.56;5127498;27;20034;-88
2023/09/30 01:35:45;;;;;;;17.65;4.72;;;;;;;17.18;53.22;94349.53;5127688;27;20094;-89
2023/09/30 01:38:11;;;;;;;20.35;3.97;;;;;;;17.18;53.17;94339.53;5145438;27;20015;-87
2023/09/30 01:40:37;;;;;;;13.02;4.43;;;;;;;17.20;53.20;94342.66;5145232;27;20026;-87
2023/09/30 01:43:03;;;;;;;8.65;4.35;;;;;;;17.20;53.51;94331.13;5145108;27;20022;-86
2023/09/30 01:45:29;;;;;;;12.50;4.82;;;;;;;17.19;53.21;94341.09;5144234;27;20098;-88
2023/09/30 01:47:54;;;;;;;17.00;4.47;;;;;;;17.23;52.70;94335.81;5145435;27;20093;-87
2023/09/30 01:50:20;;;;;;;10.70;4.38;;;;;;;17.24;53.09;94337.38;5127139;27;20019;-87
2023/09/30 01:52:45;;;;;;;14.98;4.32;;;;;;;17.20;52.74;94341.91;5145292;27;20047;-88
2023/09/30 01:55:11;;;;;;;15.38;4.47;;;;;;;17.21;53.38;94338.06;5145340;27;20019;-87
2023/09/30 01:57:36;;;;;;;13.38;4.65;;;;;;;17.21;53.93;94333.44;5127178;27;20023;-89
2023/09/30 02:00:02;;;;;;;16.20;4.40;;;;;;;17.17;54.05;94331.78;5145147;27;20030;-89
2023/09/30 02:02:28;;;;;;;19.85;4.47;;;;;;;17.21;53.45;94332.69;5145138;27;20015;-88
2023/09/30 02:04:53;;;;;;;17.63;4.20;;;;;;;17.18;52.96;94333.38;5145303;27;20018;-89
2023/09/30 02:07:19;;;;;;;14.95;3.78;;;;;;;17.16;53.14;94322.16;5145124;27;20213;-88
2023/09/30 02:09:44;;;;;;;8.48;4.13;;;;;;;17.19;54.81;94333.00;5145025;27;20344;-89
2023/09/30 02:12:10;;;;;;;17.63;4.22;;;;;;;17.14;55.09;94324.41;5126568;27;20038;-88
2023/09/30 02:14:38;;;;;;;9.27;4.75;;;;;;;17.08;54.79;94328.47;5145155;27;20213;-89
2023/09/30 02:17:09;;;;;;;20.60;5.13;;;;;;;17.02;53.45;94326.00;5145296;27;20031;-89
2023/09/30 02:19:35;;;;;;;16.52;4.53;;;;;;;16.95;53.68;94328.50;5144513;27;20023;-90
2023/09/30 02:22:28;;;;;;;17.08;5.22;;;;;;;16.94;53.90;94326.94;5127146;28;20243;-91
2023/09/30 02:24:54;;;;;;;16.58;4.95;;;;;;;16.84;53.88;94324.72;5126957;27;20070;-90
2023/09/30 02:27:20;;;;;;;16.60;5.70;;;;;;;16.74;54.91;94323.25;5126884;28;20023;-90
2023/09/30 02:29:45;;;;;;;9.10;4.72;;;;;;;16.74;55.03;94330.56;5126810;28;20091;-90
2023/09/30 02:32:12;;;;;;;15.88;4.72;;;;;;;16.61;54.29;94333.28;5144783;28;20086;-89
2023/09/30 02:34:38;;;;;;;15.25;4.68;;;;;;;16.54;55.06;94327.66;5145035;27;20038;-89
2023/09/30 02:37:03;;;;;;;11.30;4.40;;;;;;;16.54;56.10;94333.06;5144791;27;20019;-89
2023/09/30 02:39:29;;;;;;;17.42;4.80;;;;;;;16.50;57.18;94329.47;5144654;27;20039;-88
2023/09/30 02:41:54;;;;;;;11.75;4.60;;;;;;;16.45;57.40;94329.72;5144947;27;20026;-88
2023/09/30 02:44:20;;;;;;;8.90;4.65;;;;;;;16.43;56.60;94326.59;5144917;27;20318;-89
2023/09/30 02:46:45;;;;;;;18.67;5.32;;;;;;;16.33;56.22;94341.25;5144944;27;20199;-89
2023/09/30 02:49:11;;;;;;;11.98;4.63;;;;;;;16.24;56.26;94329.81;5144930;27;20022;-90
2023/09/30 02:51:39;;;;;;;12.70;4.35;;;;;;;16.25;56.84;94331.41;5144514;27;20023;-90
2023/09/30 02:54:07;;;;;;;14.02;4.43;;;;;;;16.18;56.23;94337.34;5144504;27;20094;-88
2023/09/30 02:56:32;;;;;;;8.82;4.18;;;;;;;16.15;56.25;94331.84;5144650;27;20060;-90
2023/09/30 02:58:59;;;;;;;10.40;4.00;;;;;;;16.16;54.26;94331.53;5144845;27;20023;-89
2023/09/30 03:01:26;;;;;;;13.00;4.18;;;;;;;16.10;53.47;94330.19;5144856;27;20063;-89
2023/09/30 03:03:52;;;;;;;13.55;4.60;;;;;;;16.02;54.66;94333.78;5126723;28;20023;-88
2023/09/30 03:06:18;;;;;;;12.52;3.97;;;;;;;16.02;55.51;94331.84;5144314;27;20030;-89
2023/09/30 03:08:44;;;;;;;16.35;5.28;;;;;;;15.97;56.08;94336.66;5144617;27;20030;-90
2023/09/30 03:11:10;;;;;;;13.90;4.05;;;;;;;15.98;56.54;94330.97;5144355;27;20039;-90
2023/09/30 03:13:38;;;;;;;11.70;4.22;;;;;;;15.95;57.59;94330.84;5144259;27;20072;-89
2023/09/30 03:16:04;;;;;;;10.43;4.40;;;;;;;15.87;56.35;94337.88;5144465;27;20026;-88
2023/09/30 03:18:30;;;;;;;25.83;5.03;;;;;;;15.81;55.96;94342.72;5143952;28;20011;-86
2023/09/30 03:21:08;;;;;;;12.43;4.85;;;;;;;15.80;56.65;94330.38;5125743;27;20015;-88
2023/09/30 03:23:35;;;;;;;13.45;4.38;;;;;;;15.73;56.25;94327.44;5144317;27;20027;-88
2023/09/30 03:26:00;;;;;;;19.02;5.20;;;;;;;15.59;57.38;94338.50;5144121;27;20087;-86
2023/09/30 03:28:29;;;;;;;19.27;6.22;;;;;;;15.51;58.04;94335.88;5144071;27;20019;-87
2023/09/30 03:30:56;;;;;;;16.13;4.88;;;;;;;15.51;59.14;94325.13;5144103;27;20026;-86
2023/09/30 03:33:22;;;;;;;14.25;5.90;;;;;;;15.54;58.69;94325.25;5147609;27;20078;-89
2023/09/30 03:35:50;;;;;;;11.02;4.60;;;;;;;15.47;59.29;94343.03;5148166;27;20364;-90
2023/09/30 03:38:20;;;;;;;15.90;4.85;;;;;;;15.45;60.05;94328.06;5148156;27;20040;-89
2023/09/30 03:40:47;;;;;;;18.25;6.82;;;;;;;15.53;60.23;94330.97;5147796;27;20027;-89
2023/09/30 03:43:14;;;;;;;10.25;5.05;;;;;;;15.49;60.50;94335.44;5147823;27;20333;-89
2023/09/30 03:45:41;;;;;;;17.38;5.05;;;;;;;15.46;60.90;94336.88;5129428;27;20321;-88
2023/09/30 03:48:06;;;;;;;12.90;4.55;;;;;;;15.55;60.75;94323.34;5147851;27;20244;-88
2023/09/30 03:50:32;;;;;;;19.70;5.25;;;;;;;15.57;60.88;94323.81;5147765;27;20022;-88
2023/09/30 03:53:07;;;;;;;14.57;5.15;;;;;;;15.52;61.52;94326.72;5147719;27;20095;-88
2023/09/30 03:55:33;;;;;;;13.30;5.40;;;;;;;15.50;61.42;94323.59;5147609;27;20259;-88
2023/09/30 03:58:03;;;;;;;16.63;6.00;;;;;;;15.54;61.19;94319.88;5146456;27;20034;-88
2023/09/30 04:00:29;;;;;;;16.73;5.30;;;;;;;15.55;61.41;94321.47;5129140;27;20056;-89
2023/09/30 04:03:00;;;;;;;15.50;5.55;;;;;;;15.49;61.27;94327.38;5147389;27;20095;-88
2023/09/30 04:05:33;;;;;;;14.73;6.25;;;;;;;15.49;62.16;94335.44;5147501;27;20019;-88
2023/09/30 04:07:59;;;;;;;17.23;5.30;;;;;;;15.44;62.62;94329.16;5147228;27;20095;-89
2023/09/30 04:10:28;;;;;;;15.02;6.18;;;;;;;15.43;62.62;94338.34;5147478;27;20023;-89
2023/09/30 04:12:54;;;;;;;18.02;5.85;;;;;;;15.43;62.56;94330.28;5147356;27;20045;-89
2023/09/30 04:15:19;;;;;;;16.50;5.85;;;;;;;15.42;62.80;94328.69;5129312;27;20317;-89
2023/09/30 04:17:45;;;;;;;22.58;6.00;;;;;;;15.38;62.66;94343.91;5129197;27;20286;-88
2023/09/30 04:20:16;;;;;;;10.65;4.82;;;;;;;15.34;62.46;94337.63;5147199;27;20019;-89
2023/09/30 04:22:48;;;;;;;12.00;5.63;;;;;;;15.32;62.55;94328.34;5128545;27;20027;-89
2023/09/30 04:25:16;;;;;;;13.98;5.70;;;;;;;15.28;62.82;94336.25;5147005;27;20266;-88
2023/09/30 04:27:42;;;;;;;17.42;5.78;;;;;;;15.22;62.88;94334.91;5146933;27;20031;-87
2023/09/30 04:30:09;;;;;;;10.60;4.90;;;;;;;15.20;62.89;94343.31;5145870;27;20057;-87
2023/09/30 04:32:40;;;;;;;18.30;5.88;;;;;;;15.17;62.82;94348.56;5146783;27;20043;-87
2023/09/30 04:35:08;;;;;;;13.02;5.53;;;;;;;15.17;62.58;94345.88;5146625;27;20245;-87
2023/09/30 04:37:34;;;;;;;14.10;5.95;;;;;;;15.18;63.18;94344.72;5146702;27;20023;-87
2023/09/30 04:39:59;;;;;;;20.23;5.45;;;;;;;15.09;63.33;94346.72;5146623;27;20221;-87
2023/09/30 04:42:28;;;;;;;18.10;5.63;;;;;;;15.08;63.33;94353.97;5127989;27;20023;-86
2023/09/30 04:44:55;;;;;;;14.98;5.97;;;;;;;15.10;63.57;94359.81;5128307;27;20023;-86
2023/09/30 04:47:21;;;;;;;20.33;5.95;;;;;;;15.08;63.99;94353.97;5128623;27;20039;-88
2023/09/30 04:49:47;;;;;;;33.72;9.55;;;;;;;15.08;63.82;94361.25;5146652;27;20027;-87
2023/09/30 04:52:12;;;;;;;24.10;6.60;;;;;;;15.05;64.31;94358.09;5146299;27;20317;-88
2023/09/30 04:54:38;;;;;;;25.00;6.45;;;;;;;15.05;64.92;94360.78;5146464;27;20033;-89
2023/09/30 04:57:03;;;;;;;15.85;6.68;;;;;;;14.98;65.38;94365.91;5146019;27;20101;-72
2023/09/30 04:59:29;;;;;;;36.83;6.95;;;;;;;14.89;65.59;94365.19;5145312;27;20030;-72
2023/09/30 05:01:55;;;;;;;24.42;6.68;;;;;;;14.85;65.84;94369.63;5145284;27;20026;-72
2023/09/30 05:04:20;;;;;;;22.73;6.00;;;;;;;14.91;66.07;94368.31;5145225;27;20269;-72
2023/09/30 05:06:45;;;;;;;20.52;7.63;;;;;;;14.91;66.43;94376.38;5145308;27;20226;-72
2023/09/30 05:09:12;;;;;;;25.48;7.72;;;;;;;14.84;66.51;94379.59;5145163;27;20027;-72
2023/09/30 05:11:38;;;;;;;28.42;7.20;;;;;;;14.94;66.86;94381.09;5144885;27;20047;-72
2023/09/30 05:14:05;;;;;;;23.48;6.82;;;;;;;14.97;66.48;94372.38;5145001;27;20035;-73
2023/09/30 05:16:31;;;;;;;17.70;6.32;;;;;;;14.98;66.81;94373.97;5144966;27;20317;-72
2023/09/30 05:18:57;;;;;;;19.15;6.65;;;;;;;14.99;66.85;94378.22;5144993;27;20314;-73
2023/09/30 05:21:22;;;;;;;28.35;7.63;;;;;;;15.01;66.61;94378.66;5144743;27;20023;-73
2023/09/30 05:23:47;;;;;;;31.38;7.45;;;;;;;15.05;66.62;94373.44;5144591;27;20042;-72
2023/09/30 05:26:13;;;;;;;14.27;6.53;;;;;;;15.14;66.38;94365.31;5144862;27;20090;-72
2023/09/30 05:28:39;;;;;;;25.77;7.93;;;;;;;15.18;66.28;94374.28;5144873;27;20089;-72
2023/09/30 05:31:05;;;;;;;21.50;6.30;;;;;;;15.19;65.04;94367.78;5144563;27;20105;-72
2023/09/30 05:33:30;;;;;;;21.13;7.10;;;;;;;15.22;64.77;94378.69;5126272;27;20035;-73
2023/09/30 05:35:56;;;;;;;27.10;8.80;;;;;;;15.25;64.82;94375.31;5144750;27;20079;-72
2023/09/30 05:38:23;;;;;;;23.48;8.05;;;;;;;15.34;64.38;94383.28;5144742;27;20022;-72
2023/09/30 05:40:49;;;;;;;12.50;6.25;;;;;;;15.39;64.24;94383.09;5144683;27;20027;-72
2023/09/30 05:43:14;;;;;;;14.95;7.10;;;;;;;15.41;64.48;94386.22;5144425;27;20026;-72
2023/09/30 05:45:48;;;;;;;17.98;7.13;;;;;;;15.44;64.68;94387.47;5144502;27;20093;-72
2023/09/30 05:48:15;;;;;;;25.40;7.97;;;;;;;15.46;64.97;94393.28;5144464;27;20027;-73
2023/09/30 05:50:41;;;;;;;22.58;6.95;;;;;;;15.48;64.82;94393.75;5144385;27;20258;-72
2023/09/30 05:53:06;;;;;;;18.25;7.55;;;;;;;15.55;64.78;94390.50;5144213;27;20023;-71
2023/09/30 05:55:32;;;;;;;23.63;8.68;;;;;;;15.65;64.66;94395.47;5143491;27;20239;-72
2023/09/30 05:57:59;;;;;;;17.95;6.38;;;;;;;15.69;64.79;94393.69;5144254;27;20031;-72
2023/09/30 06:00:30;;;;;;;17.60;6.95;;;;;;;15.73;65.11;94388.47;5144271;27;20295;-72
2023/09/30 06:02:57;;;;;;;24.65;7.45;;;;;;;15.73;65.14;94397.31;5144262;27;20184;-72
2023/09/30 06:05:23;;;;;;;26.92;7.88;;;;;;;15.78;64.75;94399.03;5144108;27;20033;-72
2023/09/30 06:07:51;;;;;;;28.80;7.28;;;;;;;15.89;64.37;94396.69;5144062;27;20324;-72
2023/09/30 06:10:19;;;;;;;24.25;7.80;;;;;;;15.97;63.96;94401.19;5144188;27;20022;-72
2023/09/30 06:12:54;;;;;;;31.30;8.70;;;;;;;16.05;63.53;94401.09;5143897;27;20031;-72
2023/09/30 06:15:21;;;;;;;21.35;7.05;;;;;;;16.10;63.46;94399.28;5144002;27;20030;-72
2023/09/30 06:17:49;;;;;;;19.90;6.82;;;;;;;16.16;62.17;94406.03;5143856;27;20221;-72
2023/09/30 06:20:17;;;;;;;22.23;7.38;;;;;;;16.27;62.45;94401.00;5143965;27;20427;-72
2023/09/30 06:22:47;;;;;;;26.50;7.72;;;;;;;16.38;62.11;94407.50;5143865;27;20023;-72
2023/09/30 06:25:16;;;;;;;32.97;8.00;;;;;;;16.49;62.11;94414.00;5143744;27;20026;-72
2023/09/30 06:27:41;;;;;;;19.73;7.47;;;;;;;16.62;61.01;94409.41;5143695;28;20030;-72
2023/09/30 06:30:08;;;;;;;19.33;7.75;;;;;;;16.70;60.49;94405.03;5143763;27;20023;-72
2023/09/30 06:32:35;;;;;;;18.50;7.15;;;;;;;16.77;60.00;94413.31;5143344;27;20038;-72
2023/09/30 06:35:02;;;;;;;21.10;7.47;;;;;;;16.82;59.84;94424.66;5143571;28;20246;-72
2023/09/30 06:37:29;;;;;;;17.13;7.43;;;;;;;16.84;58.81;94416.25;5143581;27;20210;-72
2023/09/30 06:39:55;;;;;;;25.90;8.30;;;;;;;16.92;57.45;94420.72;5143488;28;20043;-72
2023/09/30 06:42:21;;;;;;;22.45;7.68;;;;;;;16.87;56.71;94418.25;5143808;27;20019;-72
2023/09/30 06:44:46;;;;;;;26.95;7.18;;;;;;;16.95;56.99;94421.97;5143512;28;20072;-71
2023/09/30 06:47:12;;;;;;;11.35;5.65;;;;;;;17.01;56.68;94418.69;5125225;27;20058;-72
2023/09/30 06:49:38;;;;;;;18.80;6.60;;;;;;;17.08;55.38;94414.66;5143746;27;20116;-72
2023/09/30 06:52:04;;;;;;;18.60;6.60;;;;;;;17.17;54.26;94412.59;5143641;27;20031;-71
2023/09/30 06:54:31;;;;;;;14.23;6.90;;;;;;;17.22;54.12;94420.47;5143308;28;20015;-72
2023/09/30 06:56:56;;;;;;;21.92;7.47;;;;;;;17.32;54.76;94430.75;5143737;27;20023;-72
2023/09/30 06:59:22;;;;;;;22.55;7.70;;;;;;;17.40;53.45;94427.13;5125375;28;20090;-73
2023/09/30 07:01:47;;;;;;;23.67;7.60;;;;;;;17.48;53.31;94424.63;5143592;27;20065;-74
2023/09/30 07:04:12;;;;;;;22.05;7.28;;;;;;;17.57;52.95;94422.56;5143341;27;20027;-72
2023/09/30 07:06:38;;;;;;;22.55;6.63;;;;;;;17.67;52.69;94435.56;5146014;27;20019;-72
2023/09/30 07:09:04;;;;;;;19.48;7.03;;;;;;;17.80;52.72;94438.97;5147747;27;20034;-72
2023/09/30 07:11:32;;;;;;;11.02;5.80;;;;;;;17.82;50.82;94434.81;5147406;27;20042;-72
2023/09/30 07:13:58;;;;;;;19.67;6.40;;;;;;;17.83;52.19;94439.09;5147352;27;20045;-72
2023/09/30 07:16:23;;;;;;;20.15;6.88;;;;;;;17.94;51.48;94442.06;5147577;27;20369;-72
2023/09/30 07:18:50;;;;;;;16.30;6.82;;;;;;;17.99;51.43;94441.03;5147384;27;20031;-72
2023/09/30 07:21:16;;;;;;;16.63;7.20;;;;;;;18.07;50.14;94440.09;5147178;27;20038;-71
2023/09/30 07:23:41;;;;;;;24.70;6.65;;;;;;;18.16;49.77;94437.25;5147308;27;20019;-76
2023/09/30 07:26:06;;;;;;;22.05;6.07;;;;;;;18.19;49.66;94434.63;5147053;27;20272;-77
2023/09/30 07:28:33;;;;;;;27.48;5.85;;;;;;;18.28;50.22;94441.75;5128817;27;20019;-74
2023/09/30 07:30:58;;;;;;;22.80;6.15;;;;;;;18.33;48.11;94447.69;5147033;27;20015;-73
2023/09/30 07:33:24;;;;;;;21.25;5.80;;;;;;;18.40;47.41;94447.09;5128928;27;20042;-74
2023/09/30 07:35:49;;;;;;;13.88;5.85;;;;;;;18.49;47.53;94446.91;5146949;27;20022;-73
2023/09/30 07:38:15;;;;;;;21.70;5.47;;;;;;;18.63;47.33;94447.25;5146921;27;20026;-72
2023/09/30 07:40:41;;;;;;;16.45;4.90;;;;;;;18.74;46.87;94450.22;5146934;27;20133;-75
2023/09/30 07:43:06;;;;;;;18.27;5.25;;;;;;;18.86;45.63;94444.72;5146815;27;20015;-75
2023/09/30 07:45:32;;;;;;;8.77;4.32;;;;;;;18.99;45.08;94448.09;5146637;27;20263;-75
2023/09/30 07:47:58;;;;;;;15.65;4.28;;;;;;;19.09;44.25;94444.88;5146572;27;20014;-76
2023/09/30 07:50:24;;;;;;;10.98;3.20;;;;;;;19.22;43.56;94443.59;5146526;27;20017;-76
2023/09/30 07:52:49;;;;;;;8.90;3.65;;;;;;;19.38;44.47;94448.19;5146457;27;20262;-76
2023/09/30 07:55:15;;;;;;;14.85;4.18;;;;;;;19.51;42.47;94443.41;5146406;27;20090;-77
2023/09/30 07:57:42;;;;;;;9.07;3.33;;;;;;;19.57;41.52;94450.09;5146441;27;20101;-77
2023/09/30 08:00:14;;;;;;;17.17;3.75;;;;;;;19.65;41.31;94452.59;5146378;27;20026;-76
2023/09/30 08:02:40;;;;;;;17.10;3.88;;;;;;;19.68;41.98;94445.69;5146434;27;20074;-76
2023/09/30 08:05:06;;;;;;;16.67;4.15;;;;;;;19.79;42.85;94446.72;5146227;27;20022;-76
2023/09/30 08:07:33;;;;;;;17.98;4.00;;;;;;;19.92;41.31;94444.63;5145939;27;20019;-76
2023/09/30 08:09:59;;;;;;;10.43;4.00;;;;;;;20.01;42.00;94445.19;5127424;27;20026;-76
2023/09/30 08:12:24;;;;;;;18.85;4.72;;;;;;;20.12;41.56;94442.69;5145781;27;20114;-76
2023/09/30 08:14:51;;;;;;;11.90;3.72;;;;;;;20.19;40.31;94436.59;5127365;27;20019;-76
2023/09/30 08:17:17;;;;;;;17.75;4.80;;;;;;;20.32;40.51;94440.72;5144991;27;20037;-77
2023/09/30 08:19:43;;;;;;;19.35;4.40;;;;;;;20.41;39.20;94437.75;5146073;27;20049;-76
2023/09/30 08:22:09;;;;;;;16.80;4.30;;;;;;;20.44;38.87;94437.03;5145939;27;20264;-76
2023/09/30 08:24:35;;;;;;;17.40;4.45;;;;;;;20.47;38.98;94449.84;5145868;27;20071;-75
2023/09/30 08:27:01;;;;;;;17.48;4.30;;;;;;;20.48;39.85;94437.88;5145764;27;20030;-75
2023/09/30 08:29:26;;;;;;;18.38;4.10;;;;;;;20.63;40.21;94439.69;5145898;27;20019;-75
2023/09/30 08:31:52;;;;;;;15.25;4.75;;;;;;;20.73;39.95;94430.19;5145713;27;20011;-75
2023/09/30 08:34:19;;;;;;;23.25;4.90;;;;;;;20.80;39.13;94440.34;5145699;27;20019;-76
2023/09/30 08:36:45;;;;;;;12.05;4.53;;;;;;;20.82;39.27;94440.75;5145389;27;20373;-76
2023/09/30 08:39:10;;;;;;;23.10;5.13;;;;;;;20.95;39.04;94444.06;5145688;27;20043;-76
2023/09/30 08:41:36;;;;;;;20.85;5.55;;;;;;;21.09;36.41;94438.06;5145419;27;20052;-76
2023/09/30 08:44:03;;;;;;;20.05;5.20;;;;;;;21.18;36.53;94446.69;5145564;27;20043;-76
2023/09/30 08:46:33;;;;;;;15.35;5.10;;;;;;;21.33;36.42;94440.34;5145507;27;20030;-77
2023/09/30 08:49:02;;;;;;;17.23;5.47;;;;;;;21.46;36.28;94440.13;5145215;27;20050;-76
2023/09/30 08:51:29;;;;;;;13.20;5.40;;;;;;;21.55;36.55;94432.50;5145371;27;20053;-76
2023/09/30 08:53:56;;;;;;;17.02;5.55;;;;;;;21.64;35.38;94436.47;5145391;27;20019;-74
2023/09/30 08:56:26;;;;;;;16.88;5.13;;;;;;;21.70;34.55;94436.16;5127032;27;20030;-76
2023/09/30 08:58:53;;;;;;;17.38;6.00;;;;;;;21.73;34.88;94444.31;5144251;27;20026;-76
2023/09/30 09:01:19;;;;;;;24.33;6.07;;;;;;;21.85;34.49;94440.59;5144971;27;20082;-76
2023/09/30 09:03:47;;;;;;;17.70;5.93;;;;;;;21.98;34.95;94435.69;5145264;27;20015;-76
2023/09/30 09:06:12;;;;;;;12.85;5.38;;;;;;;22.03;33.62;94429.94;5145081;27;20078;-80
2023/09/30 09:08:38;;;;;;;12.55;5.47;;;;;;;22.06;33.77;94423.75;5144990;27;20064;-72
2023/09/30 09:11:05;;;;;;;10.95;5.88;;;;;;;22.13;33.84;94426.53;5144814;27;20050;-72
2023/09/30 09:13:49;;;;;;;15.18;5.93;;;;;;;22.18;33.76;94423.47;5144557;27;20026;-72
2023/09/30 09:16:16;;;;;;;20.60;5.60;;;;;;;22.23;34.33;94411.53;5144757;27;20040;-73
2023/09/30 09:18:42;;;;;;;23.52;5.70;;;;;;;22.31;33.68;94418.59;5144937;27;20025;-73
2023/09/30 09:21:12;;;;;;;21.70;6.55;;;;;;;22.44;34.40;94424.53;5144602;27;20107;-73
2023/09/30 09:23:42;;;;;;;18.77;5.70;;;;;;;22.51;34.46;94416.47;5144640;27;20094;-73
2023/09/30 09:26:10;;;;;;;14.23;4.72;;;;;;;22.58;36.80;94411.06;5126395;27;20090;-73
2023/09/30 09:28:39;;;;;;;22.05;6.35;;;;;;;22.68;33.71;94412.31;5144336;27;20023;-73
2023/09/30 09:31:35;;;;;;;11.27;5.45;;;;;;;22.80;34.26;94422.09;5143911;27;20023;-73
2023/09/30 09:34:02;;;;;;;25.52;5.22;;;;;;;22.84;31.81;94412.81;5142812;27;20042;-73
2023/09/30 09:36:41;;;;;;;13.85;5.75;;;;;;;22.95;32.76;94417.53;5144171;27;20019;-73
2023/09/30 09:39:07;;;;;;;22.77;5.60;;;;;;;23.00;33.48;94417.97;5143961;27;20248;-72
2023/09/30 09:41:49;;;;;;;14.40;5.60;;;;;;;23.08;34.72;94421.56;5125801;27;20071;-72
2023/09/30 09:44:15;;;;;;;12.00;5.43;;;;;;;23.18;34.89;94417.31;5144217;27;20217;-72
2023/09/30 09:46:41;;;;;;;13.55;5.28;;;;;;;23.27;34.96;94414.28;5125972;27;20041;-72
2023/09/30 09:49:07;;;;;;;15.90;5.00;;;;;;;23.27;31.52;94406.88;5144258;27;20041;-72
2023/09/30 09:51:33;;;;;;;17.63;5.28;;;;;;;23.08;30.25;94410.69;5144157;27;20019;-72
2023/09/30 09:53:59;;;;;;;16.63;5.70;;;;;;;23.13;33.69;94406.81;5144123;27;20213;-72
2023/09/30 09:56:25;;;;;;;15.63;5.60;;;;;;;23.22;33.61;94415.41;5144385;27;20015;-72
2023/09/30 09:58:51;;;;;;;14.80;5.40;;;;;;;23.32;33.48;94406.50;5144072;27;20090;-72
2023/09/30 10:01:17;;;;;;;12.48;5.70;;;;;;;23.35;32.85;94394.13;5143975;27;20240;-72
2023/09/30 10:03:42;;;;;;;21.10;5.70;;;;;;;23.46;34.15;94402.31;5143683;27;20023;-73
2023/09/30 10:06:09;;;;;;;13.43;4.75;;;;;;;23.57;32.28;94401.19;5143761;27;20284;-74
2023/09/30 10:08:40;;;;;;;10.10;4.88;;;;;;;23.64;32.05;94389.56;5143953;27;20023;-73
2023/09/30 10:11:06;;;;;;;10.40;4.30;;;;;;;23.60;30.01;94403.13;5143765;27;20039;-73
2023/09/30 10:14:03;;;;;;;41.83;4.75;;;;;;;23.39;30.81;94392.97;5143741;27;20219;-74
2023/09/30 10:16:34;;;;;;;16.15;3.88;;;;;;;23.53;29.66;94386.81;5137543;27;20058;-69
2023/09/30 10:19:15;;;;;;;12.43;3.60;;;;;;;23.62;29.13;94383.72;5143899;27;20085;-69
2023/09/30 10:22:23;;;;;;;18.05;3.72;;;;;;;23.68;29.32;94382.19;5144156;27;20309;-69
2023/09/30 10:24:51;;;;;;;10.13;3.80;;;;;;;23.75;28.92;94387.66;5144052;27;20055;-69
2023/09/30 10:27:22;;;;;;;6.88;3.13;;;;;;;23.86;29.04;94376.81;5143925;27;20038;-68
2023/09/30 10:29:53;;;;;;;14.90;3.83;;;;;;;23.99;29.92;94369.06;5142636;27;20098;-69
2023/09/30 10:32:18;;;;;;;14.52;3.70;;;;;;;24.10;29.68;94364.44;5143622;27;20275;-69
2023/09/30 10:34:52;;;;;;;13.98;3.90;;;;;;;24.20;28.86;94358.22;5142617;27;20339;-69
2023/09/30 10:37:21;;;;;;;11.40;3.47;;;;;;;24.17;29.15;94366.38;5142039;27;20049;-69
2023/09/30 10:39:53;;;;;;;22.08;4.90;;;;;;;24.30;28.79;94356.66;5141966;27;20039;-69
2023/09/30 10:42:46;;;;;;;12.52;3.10;;;;;;;24.44;27.27;94358.59;5145841;27;20023;-69
2023/09/30 10:45:43;;;;;;;21.38;4.47;;;;;;;24.34;26.72;94349.28;5128006;27;20306;-69
2023/09/30 10:48:27;;;;;;;10.60;3.15;;;;;;;24.45;26.88;94354.72;5146298;27;20067;-70
2023/09/30 10:50:56;;;;;;;8.18;3.17;;;;;;;24.50;25.82;94354.34;5146672;27;20019;-69
2023/09/30 10:53:22;;;;;;;14.45;3.58;;;;;;;24.49;26.23;94352.75;5147770;27;20259;-69
2023/09/30 10:55:55;;;;;;;15.13;2.83;;;;;;;24.38;25.73;94341.88;5129324;27;20224;-69
2023/09/30 10:58:21;;;;;;;9.73;2.90;;;;;;;24.35;26.91;94339.16;5147642;27;20042;-69
2023/09/30 11:00:55;;;;;;;17.65;3.50;;;;;;;24.49;26.19;94343.81;5147773;27;20366;-69
2023/09/30 11:03:22;;;;;;;10.75;3.40;;;;;;;24.55;25.72;94351.22;5147730;27;20019;-69
2023/09/30 11:05:48;;;;;;;6.78;2.42;;;;;;;24.51;25.15;94341.50;5147634;27;20106;-69
2023/09/30 11:08:17;;;;;;;9.25;2.90;;;;;;;24.49;25.44;94341.09;5147467;27;20141;-68
2023/09/30 11:10:50;;;;;;;13.05;3.47;;;;;;;24.41;25.96;94343.81;5147513;27;20043;-69
2023/09/30 11:13:16;;;;;;;12.00;3.08;;;;;;;24.32;26.10;94332.53;5147561;27;20199;-71
2023/09/30 11:15:44;;;;;;;18.00;3.28;;;;;;;24.37;25.38;94340.31;5147536;27;20266;-69
2023/09/30 11:18:17;;;;;;;7.55;2.63;;;;;;;24.40;25.56;94336.81;5147165;27;20027;-70
2023/09/30 11:20:44;;;;;;;10.13;2.55;;;;;;;24.57;26.23;94331.78;5147419;27;20369;-70
2023/09/30 11:23:11;;;;;;;7.13;3.05;;;;;;;24.79;25.54;94332.50;5147383;27;20015;-70
2023/09/30 11:25:39;;;;;;;14.07;2.50;;;;;;;24.94;25.21;94330.53;5147332;27;20023;-69
2023/09/30 11:28:18;;;;;;;8.80;3.33;;;;;;;25.07;25.33;94328.16;5147256;27;20039;-69
2023/09/30 11:31:01;;;;;;;8.00;2.83;;;;;;;25.25;26.13;94331.63;5147211;27;20317;-69